Lompoc, California
Current Conditions -  °F | °C
As of 2:35 PM on Tuesday 21 Oct 2014 (Local Time) from KLPC Reporting Station
Clear Clear  
Wind Chill: 75°   Ceiling: Unl
Heat Index: 75°   Visibility: 10mi
Dew Point: 48°   Wind: 21mph
Humidity: 38%   Direction: 290°WNW
Pressure: 29.91"   Gusts: 25mph
Location:  34.64°N, 120.45°W
Report Text: KLPC 212135Z AUTO 29018G22KT 10SM CLR 24/09 A2991 RMK AO1 WSHFT 51
Loading
Personal Weather Stations






























Interactive Weather Map
Tropical Storm Tracking
New forecast layout! Learn more

10-Day Weather Forecast

Advertisements
Track Severe Weather on mobile